CHH7608 ZGGG-ZJSY
Flight info
| Callsign | CHH7608 |
|---|---|
| Flight time | 1h 12m |
| Altitude | 36100 |
| Route | VIBOS1 VIBOS R473 ZUH R200 BIGRO G221 WL |
| Aircraft | B738/M-SDE2E3FGHIRWXY/LB1 |
Departure
| Time | 2026-05-05 01:11 |
|---|---|
| Airport | Guangzhou Baiyun International Airport (ZGGG) |
Arrival
| Time | 2026-05-05 02:23 |
|---|---|
| Airport | Sanya Phoenix International Airport (ZJSY) |
| Time | Latitude | Longitude | Altitude | Speed | Heading |
|---|---|---|---|---|---|
| 2026-05-05 00:49 | 23.38506 | 113.29212 | 52 ft | 0 kts | 244° |
| 2026-05-05 01:04 | 23.38506 | 113.29211 | 52 ft | 1 kts | 244° |
| 2026-05-05 01:04 | 23.38419 | 113.29182 | 52 ft | 9 kts | 113° |
| 2026-05-05 01:04 | 23.38428 | 113.29231 | 52 ft | 8 kts | 66° |
| 2026-05-05 01:05 | 23.38450 | 113.29297 | 50 ft | 6 kts | 93° |
| 2026-05-05 01:05 | 23.38420 | 113.29303 | 51 ft | 6 kts | 234° |
| 2026-05-05 01:05 | 23.38424 | 113.29238 | 51 ft | 12 kts | 269° |
| 2026-05-05 01:05 | 23.38397 | 113.29133 | 52 ft | 16 kts | 271° |
| 2026-05-05 01:06 | 23.38422 | 113.29012 | 52 ft | 16 kts | 284° |
| 2026-05-05 01:06 | 23.38448 | 113.28899 | 50 ft | 15 kts | 281° |
| 2026-05-05 01:06 | 23.38389 | 113.28822 | 51 ft | 15 kts | 194° |
| 2026-05-05 01:06 | 23.38291 | 113.28796 | 52 ft | 14 kts | 194° |
| 2026-05-05 01:07 | 23.38198 | 113.28770 | 52 ft | 13 kts | 194° |
| 2026-05-05 01:07 | 23.38111 | 113.28763 | 52 ft | 13 kts | 151° |
| 2026-05-05 01:07 | 23.38076 | 113.28850 | 52 ft | 13 kts | 104° |
| 2026-05-05 01:07 | 23.38052 | 113.28953 | 52 ft | 15 kts | 104° |
| 2026-05-05 01:08 | 23.38024 | 113.29078 | 52 ft | 19 kts | 104° |
| 2026-05-05 01:08 | 23.37990 | 113.29226 | 52 ft | 21 kts | 104° |
| 2026-05-05 01:08 | 23.37952 | 113.29391 | 51 ft | 24 kts | 104° |
| 2026-05-05 01:08 | 23.37910 | 113.29574 | 51 ft | 26 kts | 104° |
| 2026-05-05 01:09 | 23.37865 | 113.29771 | 51 ft | 27 kts | 105° |
| 2026-05-05 01:09 | 23.37818 | 113.29973 | 52 ft | 27 kts | 104° |
| 2026-05-05 01:09 | 23.37771 | 113.30167 | 52 ft | 26 kts | 116° |
| 2026-05-05 01:09 | 23.37638 | 113.30283 | 52 ft | 24 kts | 121° |
| 2026-05-05 01:10 | 23.37595 | 113.30452 | 48 ft | 23 kts | 104° |
| 2026-05-05 01:10 | 23.37614 | 113.30552 | 54 ft | 7 kts | 20° |
| 2026-05-05 01:10 | 23.37693 | 113.30573 | 50 ft | 32 kts | 14° |
| 2026-05-05 01:10 | 23.38180 | 113.30706 | 50 ft | 110 kts | 14° |
| 2026-05-05 01:11 | 23.39141 | 113.30964 | 63 ft | 171 kts | 14° |
| 2026-05-05 01:11 | 23.40387 | 113.31298 | 532 ft | 196 kts | 15° |
| 2026-05-05 01:11 | 23.41731 | 113.31679 | 1433 ft | 199 kts | 20° |
| 2026-05-05 01:11 | 23.42907 | 113.32347 | 2617 ft | 184 kts | 34° |
| 2026-05-05 01:12 | 23.44155 | 113.32915 | 3181 ft | 210 kts | 17° |
| 2026-05-05 01:12 | 23.45635 | 113.33389 | 3414 ft | 238 kts | 18° |
| 2026-05-05 01:12 | 23.47263 | 113.33973 | 3898 ft | 253 kts | 18° |
| 2026-05-05 01:12 | 23.49013 | 113.34626 | 4375 ft | 273 kts | 18° |
| 2026-05-05 01:13 | 23.50839 | 113.35327 | 5225 ft | 280 kts | 18° |
| 2026-05-05 01:13 | 23.52687 | 113.36048 | 6108 ft | 285 kts | 17° |
| 2026-05-05 01:13 | 23.54549 | 113.36779 | 6884 ft | 290 kts | 17° |
| 2026-05-05 01:13 | 23.56476 | 113.37537 | 7634 ft | 296 kts | 16° |
| 2026-05-05 01:14 | 23.58488 | 113.37971 | 8366 ft | 295 kts | 352° |
| 2026-05-05 01:14 | 23.60410 | 113.37431 | 9183 ft | 286 kts | 326° |
| 2026-05-05 01:14 | 23.61911 | 113.36078 | 10049 ft | 278 kts | 303° |
| 2026-05-05 01:14 | 23.62877 | 113.34250 | 10586 ft | 286 kts | 290° |
| 2026-05-05 01:15 | 23.63695 | 113.32164 | 10759 ft | 311 kts | 289° |
| 2026-05-05 01:15 | 23.64565 | 113.29899 | 10928 ft | 335 kts | 289° |
| 2026-05-05 01:15 | 23.65499 | 113.27504 | 11221 ft | 350 kts | 289° |
| 2026-05-05 01:15 | 23.66048 | 113.24923 | 11774 ft | 350 kts | 270° |
| 2026-05-05 01:16 | 23.65727 | 113.22296 | 12512 ft | 350 kts | 252° |
| 2026-05-05 01:16 | 23.64691 | 113.19920 | 13148 ft | 355 kts | 238° |
| 2026-05-05 01:16 | 23.63017 | 113.17903 | 13757 ft | 364 kts | 220° |
| 2026-05-05 01:16 | 23.60880 | 113.16382 | 14345 ft | 369 kts | 214° |
| 2026-05-05 01:17 | 23.58641 | 113.14985 | 14893 ft | 372 kts | 213° |
| 2026-05-05 01:17 | 23.56372 | 113.13585 | 15454 ft | 374 kts | 213° |
| 2026-05-05 01:17 | 23.54113 | 113.12160 | 16013 ft | 376 kts | 214° |
| 2026-05-05 01:17 | 23.51872 | 113.10721 | 16541 ft | 379 kts | 214° |
| 2026-05-05 01:18 | 23.49530 | 113.09356 | 17046 ft | 385 kts | 207° |
| 2026-05-05 01:18 | 23.46959 | 113.08436 | 17561 ft | 392 kts | 198° |
| 2026-05-05 01:18 | 23.44229 | 113.07987 | 18074 ft | 402 kts | 188° |
| 2026-05-05 01:18 | 23.41408 | 113.08071 | 18535 ft | 410 kts | 179° |
| 2026-05-05 01:19 | 23.38566 | 113.08656 | 18905 ft | 420 kts | 170° |
| 2026-05-05 01:19 | 23.35737 | 113.09561 | 19267 ft | 425 kts | 168° |
| 2026-05-05 01:19 | 23.32896 | 113.10521 | 19618 ft | 429 kts | 168° |
| 2026-05-05 01:19 | 23.30071 | 113.11487 | 19978 ft | 432 kts | 168° |
| 2026-05-05 01:20 | 23.27181 | 113.12470 | 20336 ft | 435 kts | 168° |
| 2026-05-05 01:20 | 23.24268 | 113.13449 | 20686 ft | 438 kts | 168° |
| 2026-05-05 01:20 | 23.21342 | 113.14422 | 21027 ft | 441 kts | 169° |
| 2026-05-05 01:20 | 23.19391 | 113.15066 | 21254 ft | 444 kts | 169° |
| 2026-05-05 01:21 | 23.15442 | 113.16363 | 21698 ft | 447 kts | 169° |
| 2026-05-05 01:21 | 23.13423 | 113.17025 | 21916 ft | 449 kts | 169° |
| 2026-05-05 01:21 | 23.10406 | 113.18012 | 22231 ft | 453 kts | 169° |
| 2026-05-05 01:21 | 23.07420 | 113.18988 | 22531 ft | 456 kts | 169° |
| 2026-05-05 01:22 | 23.04364 | 113.19988 | 22834 ft | 459 kts | 169° |
| 2026-05-05 01:22 | 23.01292 | 113.20992 | 23135 ft | 461 kts | 169° |
| 2026-05-05 01:22 | 22.98204 | 113.22001 | 23409 ft | 465 kts | 169° |
| 2026-05-05 01:22 | 22.95096 | 113.23016 | 23673 ft | 467 kts | 169° |
| 2026-05-05 01:23 | 22.91974 | 113.24036 | 23923 ft | 469 kts | 169° |
| 2026-05-05 01:23 | 22.88840 | 113.25060 | 24190 ft | 470 kts | 169° |
| 2026-05-05 01:23 | 22.85736 | 113.26073 | 24450 ft | 472 kts | 169° |
| 2026-05-05 01:23 | 22.82552 | 113.26931 | 24681 ft | 467 kts | 178° |
| 2026-05-05 01:24 | 22.79336 | 113.27096 | 24936 ft | 458 kts | 189° |
| 2026-05-05 01:24 | 22.76197 | 113.26653 | 25191 ft | 451 kts | 198° |
| 2026-05-05 01:24 | 22.73234 | 113.25710 | 25427 ft | 446 kts | 205° |
| 2026-05-05 01:24 | 22.70304 | 113.24584 | 25660 ft | 448 kts | 205° |
| 2026-05-05 01:25 | 22.67352 | 113.23450 | 25876 ft | 450 kts | 205° |
| 2026-05-05 01:25 | 22.64383 | 113.22322 | 26095 ft | 452 kts | 205° |
| 2026-05-05 01:25 | 22.61403 | 113.21202 | 26326 ft | 453 kts | 205° |
| 2026-05-05 01:25 | 22.58451 | 113.20103 | 26533 ft | 455 kts | 204° |
| 2026-05-05 01:26 | 22.55435 | 113.18987 | 26746 ft | 456 kts | 204° |
| 2026-05-05 01:26 | 22.52429 | 113.17879 | 26941 ft | 458 kts | 204° |
| 2026-05-05 01:26 | 22.49428 | 113.16773 | 27139 ft | 459 kts | 204° |
| 2026-05-05 01:26 | 22.46399 | 113.15657 | 27325 ft | 460 kts | 204° |
| 2026-05-05 01:27 | 22.43365 | 113.14539 | 27501 ft | 462 kts | 204° |
| 2026-05-05 01:27 | 22.40307 | 113.13413 | 27687 ft | 463 kts | 204° |
| 2026-05-05 01:27 | 22.37248 | 113.12287 | 27865 ft | 464 kts | 204° |
| 2026-05-05 01:27 | 22.34213 | 113.11169 | 28010 ft | 466 kts | 204° |
| 2026-05-05 01:28 | 22.31139 | 113.10038 | 28176 ft | 467 kts | 204° |
| 2026-05-05 01:28 | 22.28042 | 113.08899 | 28368 ft | 468 kts | 204° |
| 2026-05-05 01:28 | 22.24950 | 113.07763 | 28625 ft | 467 kts | 204° |
| 2026-05-05 01:28 | 22.21914 | 113.06648 | 28898 ft | 466 kts | 204° |
| 2026-05-05 01:29 | 22.18846 | 113.05522 | 29142 ft | 465 kts | 204° |
| 2026-05-05 01:29 | 22.15777 | 113.04394 | 29369 ft | 465 kts | 204° |
| 2026-05-05 01:29 | 22.12706 | 113.03266 | 29641 ft | 465 kts | 204° |
| 2026-05-05 01:29 | 22.09642 | 113.02143 | 29948 ft | 464 kts | 204° |
| 2026-05-05 01:30 | 22.06710 | 113.00762 | 30167 ft | 455 kts | 217° |
| 2026-05-05 01:30 | 22.04301 | 112.98687 | 30384 ft | 445 kts | 230° |
| 2026-05-05 01:30 | 22.02350 | 112.96130 | 30608 ft | 439 kts | 241° |
| 2026-05-05 01:30 | 22.00989 | 112.93205 | 30824 ft | 434 kts | 250° |
| 2026-05-05 01:31 | 21.99878 | 112.90181 | 31086 ft | 433 kts | 251° |
| 2026-05-05 01:31 | 21.98761 | 112.87154 | 31319 ft | 433 kts | 250° |
| 2026-05-05 01:31 | 21.97625 | 112.84187 | 31533 ft | 433 kts | 250° |
| 2026-05-05 01:31 | 21.96451 | 112.81190 | 31771 ft | 433 kts | 249° |
| 2026-05-05 01:32 | 21.95258 | 112.78207 | 32031 ft | 432 kts | 249° |
| 2026-05-05 01:32 | 21.94059 | 112.75232 | 32283 ft | 432 kts | 249° |
| 2026-05-05 01:32 | 21.92860 | 112.72260 | 32528 ft | 431 kts | 249° |
| 2026-05-05 01:32 | 21.91684 | 112.69340 | 32799 ft | 430 kts | 249° |
| 2026-05-05 01:33 | 21.90494 | 112.66381 | 33057 ft | 430 kts | 249° |
| 2026-05-05 01:33 | 21.89300 | 112.63408 | 33244 ft | 431 kts | 249° |
| 2026-05-05 01:33 | 21.88108 | 112.60440 | 33527 ft | 431 kts | 249° |
| 2026-05-05 01:33 | 21.86932 | 112.57515 | 33919 ft | 429 kts | 249° |
| 2026-05-05 01:34 | 21.85746 | 112.54570 | 34347 ft | 427 kts | 249° |
| 2026-05-05 01:34 | 21.84573 | 112.51638 | 34709 ft | 426 kts | 249° |
| 2026-05-05 01:34 | 21.83400 | 112.48689 | 34909 ft | 427 kts | 249° |
| 2026-05-05 01:34 | 21.82224 | 112.45728 | 35069 ft | 429 kts | 249° |
| 2026-05-05 01:35 | 21.81067 | 112.42813 | 35268 ft | 428 kts | 249° |
| 2026-05-05 01:35 | 21.79895 | 112.39865 | 35484 ft | 428 kts | 249° |
| 2026-05-05 01:35 | 21.78723 | 112.36922 | 35691 ft | 428 kts | 249° |
| 2026-05-05 01:35 | 21.77547 | 112.33971 | 35869 ft | 428 kts | 249° |
| 2026-05-05 01:36 | 21.76370 | 112.31018 | 36020 ft | 428 kts | 249° |
| 2026-05-05 01:36 | 21.75192 | 112.28066 | 36018 ft | 427 kts | 249° |
| 2026-05-05 01:36 | 21.72859 | 112.22227 | 36017 ft | 428 kts | 249° |
| 2026-05-05 01:37 | 21.70499 | 112.16324 | 36029 ft | 429 kts | 249° |
| 2026-05-05 01:37 | 21.68147 | 112.10450 | 36029 ft | 430 kts | 249° |
| 2026-05-05 01:38 | 21.65771 | 112.04524 | 36025 ft | 430 kts | 249° |
| 2026-05-05 01:38 | 21.63412 | 111.98645 | 36027 ft | 431 kts | 249° |
| 2026-05-05 01:39 | 21.61029 | 111.92712 | 36022 ft | 432 kts | 249° |
| 2026-05-05 01:39 | 21.58653 | 111.86808 | 36024 ft | 432 kts | 249° |
| 2026-05-05 01:40 | 21.55793 | 111.81117 | 36020 ft | 436 kts | 237° |
| 2026-05-05 01:40 | 21.51857 | 111.76094 | 36015 ft | 438 kts | 233° |
| 2026-05-05 01:41 | 21.47886 | 111.71175 | 36027 ft | 438 kts | 233° |
| 2026-05-05 01:41 | 21.43897 | 111.66195 | 36014 ft | 438 kts | 233° |
| 2026-05-05 01:42 | 21.39949 | 111.61236 | 36021 ft | 438 kts | 233° |
| 2026-05-05 01:42 | 21.36006 | 111.56280 | 36019 ft | 438 kts | 233° |
| 2026-05-05 01:43 | 21.32030 | 111.51286 | 36018 ft | 438 kts | 233° |
| 2026-05-05 01:43 | 21.28086 | 111.46337 | 36018 ft | 439 kts | 233° |
| 2026-05-05 01:44 | 21.24097 | 111.41338 | 36020 ft | 440 kts | 233° |
| 2026-05-05 01:44 | 21.20126 | 111.36367 | 36020 ft | 440 kts | 233° |
| 2026-05-05 01:45 | 21.16130 | 111.31367 | 36021 ft | 441 kts | 233° |
| 2026-05-05 01:45 | 21.12154 | 111.26398 | 36018 ft | 442 kts | 233° |
| 2026-05-05 01:46 | 21.08143 | 111.21389 | 36018 ft | 442 kts | 233° |
| 2026-05-05 01:46 | 21.04143 | 111.16397 | 36018 ft | 443 kts | 233° |
| 2026-05-05 01:47 | 21.00112 | 111.11371 | 36019 ft | 444 kts | 233° |
| 2026-05-05 01:47 | 20.96108 | 111.06384 | 36018 ft | 444 kts | 233° |
| 2026-05-05 01:48 | 20.92076 | 111.01351 | 36016 ft | 444 kts | 233° |
| 2026-05-05 01:48 | 20.88082 | 110.96347 | 36016 ft | 445 kts | 233° |
| 2026-05-05 01:49 | 20.84058 | 110.91311 | 36015 ft | 445 kts | 233° |
| 2026-05-05 01:49 | 20.80015 | 110.86257 | 36015 ft | 445 kts | 233° |
| 2026-05-05 01:50 | 20.75997 | 110.81239 | 36009 ft | 446 kts | 233° |
| 2026-05-05 01:50 | 20.71979 | 110.76227 | 36011 ft | 446 kts | 233° |
| 2026-05-05 01:51 | 20.67931 | 110.71181 | 36009 ft | 446 kts | 233° |
| 2026-05-05 01:51 | 20.63886 | 110.66144 | 36011 ft | 446 kts | 233° |
| 2026-05-05 01:52 | 20.59859 | 110.61132 | 36010 ft | 446 kts | 233° |
| 2026-05-05 01:52 | 20.55810 | 110.56097 | 36013 ft | 446 kts | 233° |
| 2026-05-05 01:53 | 20.51780 | 110.51103 | 36013 ft | 447 kts | 231° |
| 2026-05-05 01:53 | 20.46994 | 110.46779 | 36019 ft | 454 kts | 219° |
| 2026-05-05 01:54 | 20.41749 | 110.43012 | 36011 ft | 455 kts | 218° |
| 2026-05-05 01:54 | 20.36508 | 110.39242 | 36010 ft | 457 kts | 218° |
| 2026-05-05 01:55 | 20.31239 | 110.35405 | 36007 ft | 457 kts | 219° |
| 2026-05-05 01:55 | 20.26005 | 110.31578 | 36005 ft | 456 kts | 219° |
| 2026-05-05 01:56 | 20.20798 | 110.27772 | 36009 ft | 456 kts | 219° |
| 2026-05-05 01:56 | 20.15555 | 110.23945 | 36006 ft | 456 kts | 219° |
| 2026-05-05 01:57 | 20.10314 | 110.20122 | 36009 ft | 455 kts | 219° |
| 2026-05-05 01:57 | 20.05113 | 110.16332 | 36011 ft | 455 kts | 219° |
| 2026-05-05 01:58 | 19.99721 | 110.12725 | 36008 ft | 461 kts | 210° |
| 2026-05-05 01:58 | 19.93885 | 110.09902 | 36000 ft | 462 kts | 208° |
| 2026-05-05 01:59 | 19.87993 | 110.07131 | 35996 ft | 462 kts | 208° |
| 2026-05-05 01:59 | 19.85028 | 110.05718 | 35438 ft | 469 kts | 208° |
| 2026-05-05 01:59 | 19.82054 | 110.04290 | 34823 ft | 467 kts | 209° |
| 2026-05-05 02:00 | 19.79118 | 110.02874 | 34159 ft | 468 kts | 209° |
| 2026-05-05 02:00 | 19.76144 | 110.01437 | 33349 ft | 470 kts | 209° |
| 2026-05-05 02:00 | 19.73149 | 109.99988 | 32579 ft | 470 kts | 208° |
| 2026-05-05 02:00 | 19.70205 | 109.98565 | 31813 ft | 471 kts | 208° |
| 2026-05-05 02:01 | 19.67200 | 109.97114 | 31003 ft | 473 kts | 208° |
| 2026-05-05 02:01 | 19.64182 | 109.95656 | 30170 ft | 475 kts | 208° |
| 2026-05-05 02:01 | 19.61197 | 109.94216 | 29197 ft | 478 kts | 208° |
| 2026-05-05 02:01 | 19.58153 | 109.92748 | 28259 ft | 478 kts | 208° |
| 2026-05-05 02:02 | 19.55133 | 109.91295 | 27642 ft | 472 kts | 208° |
| 2026-05-05 02:02 | 19.52187 | 109.89878 | 26999 ft | 466 kts | 208° |
| 2026-05-05 02:02 | 19.49227 | 109.88454 | 26365 ft | 461 kts | 208° |
| 2026-05-05 02:02 | 19.46347 | 109.87068 | 25745 ft | 456 kts | 207° |
| 2026-05-05 02:03 | 19.43471 | 109.85682 | 25125 ft | 452 kts | 207° |
| 2026-05-05 02:03 | 19.40610 | 109.84306 | 24489 ft | 448 kts | 207° |
| 2026-05-05 02:03 | 19.37780 | 109.82945 | 23865 ft | 444 kts | 207° |
| 2026-05-05 02:03 | 19.34999 | 109.81621 | 23270 ft | 439 kts | 207° |
| 2026-05-05 02:04 | 19.32218 | 109.80309 | 22616 ft | 434 kts | 207° |
| 2026-05-05 02:04 | 19.29465 | 109.79012 | 21990 ft | 429 kts | 206° |
| 2026-05-05 02:04 | 19.26743 | 109.77727 | 21381 ft | 424 kts | 206° |
| 2026-05-05 02:04 | 19.24097 | 109.76471 | 20785 ft | 420 kts | 207° |
| 2026-05-05 02:05 | 19.21454 | 109.75170 | 20169 ft | 416 kts | 207° |
| 2026-05-05 02:05 | 19.18841 | 109.73867 | 19554 ft | 414 kts | 207° |
| 2026-05-05 02:05 | 19.16243 | 109.72576 | 18970 ft | 411 kts | 207° |
| 2026-05-05 02:05 | 19.13645 | 109.71306 | 18323 ft | 410 kts | 206° |
| 2026-05-05 02:06 | 19.11058 | 109.70063 | 17655 ft | 407 kts | 206° |
| 2026-05-05 02:06 | 19.08477 | 109.68830 | 17035 ft | 403 kts | 206° |
| 2026-05-05 02:06 | 19.05960 | 109.67629 | 16450 ft | 399 kts | 206° |
| 2026-05-05 02:06 | 19.03442 | 109.66426 | 15874 ft | 396 kts | 206° |
| 2026-05-05 02:07 | 19.00939 | 109.65229 | 15303 ft | 392 kts | 206° |
| 2026-05-05 02:07 | 18.98460 | 109.64041 | 14724 ft | 390 kts | 206° |
| 2026-05-05 02:07 | 18.95994 | 109.62859 | 14159 ft | 388 kts | 206° |
| 2026-05-05 02:07 | 18.93542 | 109.61684 | 13554 ft | 386 kts | 206° |
| 2026-05-05 02:08 | 18.91110 | 109.60518 | 12964 ft | 382 kts | 206° |
| 2026-05-05 02:08 | 18.88687 | 109.59358 | 12392 ft | 379 kts | 206° |
| 2026-05-05 02:08 | 18.86326 | 109.58227 | 11843 ft | 375 kts | 206° |
| 2026-05-05 02:08 | 18.83955 | 109.57092 | 11292 ft | 372 kts | 206° |
| 2026-05-05 02:09 | 18.81626 | 109.55978 | 11011 ft | 361 kts | 206° |
| 2026-05-05 02:09 | 18.80120 | 109.55258 | 10897 ft | 352 kts | 206° |
| 2026-05-05 02:09 | 18.77920 | 109.54207 | 10754 ft | 340 kts | 206° |
| 2026-05-05 02:09 | 18.75798 | 109.53192 | 10595 ft | 329 kts | 206° |
| 2026-05-05 02:10 | 18.73741 | 109.52209 | 10450 ft | 319 kts | 206° |
| 2026-05-05 02:10 | 18.71737 | 109.51252 | 10322 ft | 309 kts | 206° |
| 2026-05-05 02:10 | 18.69831 | 109.50340 | 10195 ft | 301 kts | 206° |
| 2026-05-05 02:10 | 18.67944 | 109.49439 | 10060 ft | 292 kts | 206° |
| 2026-05-05 02:11 | 18.66109 | 109.48562 | 9828 ft | 288 kts | 206° |
| 2026-05-05 02:11 | 18.64278 | 109.47686 | 9519 ft | 286 kts | 205° |
| 2026-05-05 02:11 | 18.62466 | 109.46821 | 9221 ft | 285 kts | 206° |
| 2026-05-05 02:11 | 18.60684 | 109.45970 | 8916 ft | 284 kts | 205° |
| 2026-05-05 02:12 | 18.58884 | 109.45111 | 8618 ft | 282 kts | 205° |
| 2026-05-05 02:12 | 18.55330 | 109.43414 | 8036 ft | 277 kts | 205° |
| 2026-05-05 02:12 | 18.53570 | 109.42575 | 7744 ft | 278 kts | 205° |
| 2026-05-05 02:13 | 18.51824 | 109.41743 | 7439 ft | 278 kts | 205° |
| 2026-05-05 02:13 | 18.50100 | 109.40823 | 7124 ft | 278 kts | 217° |
| 2026-05-05 02:13 | 18.48864 | 109.39286 | 6843 ft | 275 kts | 244° |
| 2026-05-05 02:13 | 18.48231 | 109.37397 | 6572 ft | 273 kts | 253° |
| 2026-05-05 02:14 | 18.47725 | 109.35472 | 6298 ft | 271 kts | 255° |
| 2026-05-05 02:14 | 18.47244 | 109.33574 | 6051 ft | 269 kts | 255° |
| 2026-05-05 02:14 | 18.46768 | 109.31679 | 5822 ft | 266 kts | 255° |
| 2026-05-05 02:14 | 18.46303 | 109.29813 | 5632 ft | 261 kts | 255° |
| 2026-05-05 02:15 | 18.45845 | 109.27973 | 5308 ft | 262 kts | 255° |
| 2026-05-05 02:15 | 18.45375 | 109.26093 | 4788 ft | 266 kts | 255° |
| 2026-05-05 02:15 | 18.44900 | 109.24205 | 4278 ft | 266 kts | 255° |
| 2026-05-05 02:15 | 18.44421 | 109.22313 | 3766 ft | 267 kts | 255° |
| 2026-05-05 02:16 | 18.43944 | 109.20442 | 3276 ft | 267 kts | 255° |
| 2026-05-05 02:16 | 18.43405 | 109.18562 | 2757 ft | 268 kts | 245° |
| 2026-05-05 02:16 | 18.42158 | 109.17187 | 2557 ft | 256 kts | 206° |
| 2026-05-05 02:16 | 18.40499 | 109.16775 | 2416 ft | 244 kts | 182° |
| 2026-05-05 02:17 | 18.38860 | 109.16988 | 2310 ft | 233 kts | 163° |
| 2026-05-05 02:17 | 18.37353 | 109.17481 | 2307 ft | 218 kts | 162° |
| 2026-05-05 02:17 | 18.35950 | 109.17945 | 2291 ft | 203 kts | 162° |
| 2026-05-05 02:17 | 18.34622 | 109.18378 | 2296 ft | 202 kts | 162° |
| 2026-05-05 02:18 | 18.33274 | 109.18818 | 2291 ft | 204 kts | 162° |
| 2026-05-05 02:18 | 18.31922 | 109.19258 | 2313 ft | 202 kts | 162° |
| 2026-05-05 02:18 | 18.30566 | 109.19692 | 2282 ft | 204 kts | 163° |
| 2026-05-05 02:18 | 18.29232 | 109.20128 | 2280 ft | 197 kts | 159° |
| 2026-05-05 02:19 | 18.28193 | 109.20968 | 2274 ft | 188 kts | 116° |
| 2026-05-05 02:19 | 18.28013 | 109.22289 | 2312 ft | 185 kts | 83° |
| 2026-05-05 02:19 | 18.28089 | 109.23637 | 2290 ft | 184 kts | 86° |
| 2026-05-05 02:19 | 18.28193 | 109.24924 | 2278 ft | 168 kts | 82° |
| 2026-05-05 02:20 | 18.28336 | 109.26126 | 2306 ft | 165 kts | 82° |
| 2026-05-05 02:20 | 18.28486 | 109.27305 | 2290 ft | 161 kts | 81° |
| 2026-05-05 02:20 | 18.28637 | 109.28472 | 2177 ft | 164 kts | 81° |
| 2026-05-05 02:20 | 18.28791 | 109.29666 | 1980 ft | 164 kts | 81° |
| 2026-05-05 02:21 | 18.28945 | 109.30847 | 1756 ft | 161 kts | 81° |
| 2026-05-05 02:21 | 18.29095 | 109.32004 | 1544 ft | 158 kts | 81° |
| 2026-05-05 02:21 | 18.29243 | 109.33145 | 1342 ft | 159 kts | 81° |
| 2026-05-05 02:21 | 18.29393 | 109.34302 | 1129 ft | 159 kts | 82° |
| 2026-05-05 02:22 | 18.29547 | 109.35455 | 932 ft | 159 kts | 82° |
| 2026-05-05 02:22 | 18.29701 | 109.36615 | 735 ft | 160 kts | 82° |
| 2026-05-05 02:22 | 18.29846 | 109.37781 | 534 ft | 161 kts | 83° |
| 2026-05-05 02:22 | 18.29996 | 109.38946 | 303 ft | 163 kts | 82° |
| 2026-05-05 02:23 | 18.30156 | 109.40126 | 88 ft | 158 kts | 81° |
| 2026-05-05 02:23 | 18.30279 | 109.41072 | 82 ft | 100 kts | 82° |
| 2026-05-05 02:23 | 18.30343 | 109.41567 | 85 ft | 32 kts | 82° |
| 2026-05-05 02:23 | 18.30421 | 109.41775 | 85 ft | 30 kts | 59° |
| 2026-05-05 02:24 | 18.30532 | 109.41857 | 83 ft | 16 kts | 324° |
| 2026-05-05 02:24 | 18.30539 | 109.41746 | 84 ft | 15 kts | 262° |
| 2026-05-05 02:24 | 18.30525 | 109.41637 | 83 ft | 15 kts | 262° |
| 2026-05-05 02:24 | 18.30511 | 109.41531 | 86 ft | 14 kts | 262° |
| 2026-05-05 02:25 | 18.30498 | 109.41432 | 83 ft | 14 kts | 262° |
| 2026-05-05 02:25 | 18.30484 | 109.41336 | 85 ft | 13 kts | 262° |
| 2026-05-05 02:25 | 18.30475 | 109.41236 | 85 ft | 18 kts | 262° |
| 2026-05-05 02:25 | 18.30501 | 109.41140 | 85 ft | 13 kts | 353° |
| 2026-05-05 02:26 | 18.30587 | 109.41127 | 85 ft | 12 kts | 352° |
| 2026-05-05 02:26 | 18.30672 | 109.41115 | 84 ft | 12 kts | 352° |
| 2026-05-05 02:26 | 18.30753 | 109.41100 | 85 ft | 12 kts | 332° |
| 2026-05-05 02:26 | 18.30771 | 109.41021 | 83 ft | 12 kts | 263° |
| 2026-05-05 02:27 | 18.30771 | 109.40955 | 83 ft | 6 kts | 303° |
| 2026-05-05 02:27 | 18.30814 | 109.40948 | 85 ft | 6 kts | 355° |
| 2026-05-05 02:27 | 18.30817 | 109.40948 | 84 ft | 0 kts | 355° |